createdAt,value
2022-10-24T03:31:32.197Z,13.64
2022-10-24T03:34:01.630Z,13.47
2022-10-24T03:36:29.604Z,13.56
2022-10-24T03:38:57.646Z,13.45
2022-10-24T03:41:25.442Z,13.42
2022-10-24T03:43:53.503Z,13.48
2022-10-24T03:46:21.318Z,13.56
2022-10-24T03:48:49.459Z,13.67
2022-10-24T03:51:18.687Z,13.64
2022-10-24T03:53:46.713Z,13.32
2022-10-24T03:56:14.579Z,12.79
2022-10-24T03:58:42.694Z,12.81
2022-10-24T04:01:17.004Z,12.82
2022-10-24T04:03:45.706Z,13.23
2022-10-24T04:06:14.482Z,13.57
2022-10-24T04:08:43.969Z,13.78
2022-10-24T04:11:12.754Z,13.83
2022-10-24T04:13:40.772Z,13.32
2022-10-24T04:16:09.030Z,13.51
2022-10-24T04:18:37.037Z,13.62
2022-10-24T04:21:05.432Z,13.63
2022-10-24T04:23:38.574Z,13.74
2022-10-24T04:26:07.869Z,13.88
2022-10-24T04:28:35.816Z,13.81
2022-10-24T04:31:03.603Z,13.79
2022-10-24T04:33:31.736Z,13.82
2022-10-24T04:35:59.599Z,13.86
2022-10-24T04:38:32.559Z,13.72
2022-10-24T04:41:02.177Z,13.77
2022-10-24T04:43:31.705Z,13.81
2022-10-24T04:45:59.759Z,13.90
2022-10-24T04:48:27.752Z,14.04
2022-10-24T04:50:56.428Z,14.17
2022-10-24T04:53:24.417Z,13.93
2022-10-24T04:55:52.561Z,13.73
2022-10-24T04:58:20.858Z,13.62
2022-10-24T05:00:50.402Z,13.92
2022-10-24T05:03:18.588Z,14.10
2022-10-24T05:05:46.734Z,14.10
2022-10-24T05:08:14.518Z,14.02
2022-10-24T05:10:42.754Z,13.32
2022-10-24T05:13:11.051Z,13.12
2022-10-24T05:15:38.867Z,13.32
2022-10-24T05:18:08.501Z,13.19
2022-10-24T05:20:36.827Z,13.21
2022-10-24T05:23:04.727Z,13.63
2022-10-24T05:25:32.751Z,13.51
2022-10-24T05:28:00.460Z,13.16
2022-10-24T05:30:28.536Z,13.44
2022-10-24T05:32:56.477Z,13.40
2022-10-24T05:35:25.850Z,13.19
2022-10-24T05:37:53.557Z,13.30
2022-10-24T05:40:21.631Z,13.28
2022-10-24T05:42:50.827Z,13.44
2022-10-24T05:45:19.629Z,13.33
2022-10-24T05:47:47.888Z,13.60
2022-10-24T05:50:16.616Z,13.45
2022-10-24T05:52:47.211Z,13.37
2022-10-24T05:55:17.887Z,13.65
2022-10-24T05:57:47.153Z,13.28
2022-10-24T06:00:17.274Z,12.84
2022-10-24T06:05:15.610Z,13.52
2022-10-24T06:07:45.474Z,13.42
2022-10-24T06:10:14.328Z,13.25
2022-10-24T06:12:42.488Z,13.53
2022-10-24T06:15:11.824Z,13.84
2022-10-24T06:17:39.871Z,14.03
2022-10-24T06:20:08.984Z,14.02
2022-10-24T06:22:37.082Z,14.07
2022-10-24T06:25:07.272Z,14.13
2022-10-24T06:27:36.605Z,14.00
2022-10-24T06:30:05.320Z,13.86
2022-10-24T06:32:33.487Z,14.01
2022-10-24T06:35:02.071Z,14.15
2022-10-24T06:37:30.258Z,14.11
2022-10-24T06:39:58.100Z,14.20
2022-10-24T06:42:27.224Z,14.36
2022-10-24T06:44:55.100Z,14.56
2022-10-24T06:47:22.770Z,14.62
2022-10-24T06:49:50.661Z,14.66
2022-10-24T06:52:18.760Z,14.69
2022-10-24T06:54:46.667Z,14.78
2022-10-24T06:57:14.622Z,14.71
2022-10-24T06:59:43.862Z,14.72
2022-10-24T07:02:14.407Z,14.86
2022-10-24T07:04:42.767Z,15.07
2022-10-24T07:07:16.157Z,15.16
2022-10-24T07:09:44.484Z,15.20
2022-10-24T07:12:12.683Z,15.24
2022-10-24T07:14:40.616Z,15.33
2022-10-24T07:17:09.928Z,15.32
2022-10-24T07:19:37.760Z,15.35
2022-10-24T07:22:06.646Z,15.44
2022-10-24T07:24:34.895Z,15.45
2022-10-24T07:27:02.792Z,15.58
2022-10-24T07:29:30.780Z,15.83
2022-10-24T07:31:59.666Z,15.98
2022-10-24T07:34:28.886Z,16.10
2022-10-24T07:36:56.924Z,16.17
2022-10-24T07:39:24.855Z,16.41
2022-10-24T07:41:52.695Z,16.62
2022-10-24T07:44:20.933Z,16.73
2022-10-24T07:46:48.806Z,16.75
2022-10-24T07:49:17.077Z,16.98
2022-10-24T07:51:46.754Z,16.97
2022-10-24T07:54:14.615Z,17.03
2022-10-24T07:56:42.411Z,17.08
2022-10-24T07:59:29.760Z,17.22
2022-10-24T08:01:58.380Z,17.25
2022-10-24T08:04:26.625Z,17.35
2022-10-24T08:06:55.878Z,17.48
2022-10-24T08:09:24.498Z,17.53
2022-10-24T08:11:52.771Z,17.69
2022-10-24T08:14:20.488Z,17.96
2022-10-24T08:16:52.045Z,17.92
2022-10-24T08:19:19.804Z,17.93
2022-10-24T08:21:52.890Z,17.97
2022-10-24T08:24:21.970Z,18.02
2022-10-24T08:26:49.910Z,18.16
2022-10-24T08:29:22.327Z,18.40
2022-10-24T08:31:51.656Z,18.52
2022-10-24T08:34:20.137Z,18.40
2022-10-24T08:36:49.127Z,18.51
2022-10-24T08:39:17.728Z,18.57
2022-10-24T08:41:51.256Z,18.49
2022-10-24T08:44:26.771Z,18.42
2022-10-24T08:46:59.916Z,18.55
2022-10-24T08:49:39.378Z,18.78
2022-10-24T08:52:20.509Z,18.87
2022-10-24T08:54:55.817Z,19.00
2022-10-24T08:57:31.651Z,19.22
2022-10-24T09:00:04.885Z,19.23
2022-10-24T09:02:39.745Z,19.31
2022-10-24T09:05:22.301Z,19.56
2022-10-24T09:07:53.632Z,20.23
2022-10-24T09:10:27.840Z,21.02
2022-10-24T09:12:57.030Z,21.20
2022-10-24T09:15:34.731Z,21.33
2022-10-24T09:18:02.993Z,21.80
2022-10-24T09:20:33.732Z,22.50
2022-10-24T09:23:05.174Z,22.41
2022-10-24T09:25:35.691Z,21.73
2022-10-24T09:28:07.454Z,21.47
2022-10-24T09:30:37.603Z,21.46
2022-10-24T09:33:15.868Z,21.47
2022-10-24T09:35:44.325Z,21.49
2022-10-24T09:38:33.672Z,22.16
2022-10-24T09:41:05.205Z,22.92
2022-10-24T09:43:40.444Z,23.51
2022-10-24T09:46:10.941Z,24.63
2022-10-24T09:48:53.239Z,24.67
2022-10-24T09:51:33.563Z,23.82
2022-10-24T09:54:06.524Z,22.45
2022-10-24T09:56:39.928Z,22.33
2022-10-24T09:59:28.581Z,22.21
2022-10-24T10:02:19.606Z,22.23
2022-10-24T10:04:48.823Z,22.39
2022-10-24T10:07:20.082Z,23.86
2022-10-24T10:09:55.647Z,23.94
2022-10-24T10:12:31.210Z,23.17
2022-10-24T10:14:59.409Z,22.73
2022-10-24T10:17:31.378Z,22.57
2022-10-24T10:20:00.161Z,22.63
2022-10-24T10:22:29.723Z,22.90
2022-10-24T10:24:59.692Z,23.23
2022-10-24T10:27:34.687Z,23.53
2022-10-24T10:30:15.967Z,25.35
2022-10-24T10:32:55.504Z,27.71
2022-10-24T10:35:27.796Z,27.50
2022-10-24T10:38:01.116Z,25.34
2022-10-24T10:40:32.536Z,25.17
2022-10-24T10:43:18.367Z,24.11
2022-10-24T10:45:48.791Z,24.87
2022-10-24T10:48:40.266Z,26.63
2022-10-24T10:51:17.479Z,27.37
2022-10-24T10:53:55.164Z,29.50
2022-10-24T10:56:35.312Z,30.53
2022-10-24T10:59:23.551Z,27.87
2022-10-24T11:02:00.938Z,26.88
2022-10-24T11:04:38.543Z,28.59
2022-10-24T11:07:14.086Z,30.45
2022-10-24T11:09:45.737Z,31.42
2022-10-24T11:12:18.510Z,30.38
2022-10-24T11:14:51.238Z,28.38
2022-10-24T11:17:24.382Z,26.72
2022-10-24T11:20:04.234Z,26.34
2022-10-24T11:22:38.404Z,26.47
2022-10-24T11:25:10.871Z,26.32
2022-10-24T11:27:45.225Z,24.96
2022-10-24T11:30:16.346Z,24.24
2022-10-24T11:32:50.405Z,24.27
2022-10-24T11:35:26.800Z,24.23
2022-10-24T11:37:59.738Z,23.96
2022-10-24T11:40:30.005Z,23.75
2022-10-24T11:43:05.110Z,23.43
2022-10-24T11:45:40.050Z,23.52
2022-10-24T11:48:15.237Z,23.34
2022-10-24T11:50:49.776Z,23.39
2022-10-24T11:53:45.818Z,23.66
2022-10-24T11:56:20.412Z,23.88
2022-10-24T11:58:57.786Z,24.17
2022-10-24T12:01:45.577Z,24.14
2022-10-24T12:04:44.126Z,23.66
2022-10-24T12:10:19.673Z,23.94
2022-10-24T12:13:08.949Z,23.80
2022-10-24T12:15:47.729Z,24.14
2022-10-24T12:18:30.423Z,24.06
2022-10-24T12:21:03.026Z,24.58
2022-10-24T12:23:32.482Z,26.47
2022-10-24T12:26:07.429Z,26.61
2022-10-24T12:28:36.465Z,27.09
2022-10-24T12:31:22.351Z,27.85
2022-10-24T12:34:31.979Z,28.33
2022-10-24T12:37:11.986Z,27.89
2022-10-24T12:39:45.770Z,28.26
2022-10-24T12:42:41.763Z,29.53
2022-10-24T12:45:29.541Z,27.86
2022-10-24T12:48:27.403Z,30.22
2022-10-24T12:51:00.153Z,31.75
2022-10-24T12:53:37.805Z,28.90
2022-10-24T12:59:02.154Z,25.66
2022-10-24T13:01:37.978Z,24.73
2022-10-24T13:04:37.487Z,23.88
2022-10-24T13:07:48.328Z,23.75
2022-10-24T13:10:45.593Z,25.17
2022-10-24T13:13:45.705Z,26.34
2022-10-24T13:16:26.127Z,27.64
2022-10-24T13:19:09.327Z,27.64
2022-10-24T13:21:47.162Z,27.40
2022-10-24T13:24:25.673Z,26.37
2022-10-24T13:27:26.296Z,25.22
2022-10-24T13:30:25.501Z,25.28
2022-10-24T13:33:40.945Z,25.42
2022-10-24T13:36:16.825Z,25.68
2022-10-24T13:38:50.394Z,25.24
2022-10-24T13:41:26.466Z,24.78
2022-10-24T13:43:57.759Z,24.17
2022-10-24T13:46:31.479Z,23.27
2022-10-24T13:49:02.855Z,23.15
2022-10-24T13:51:38.843Z,22.93
2022-10-24T13:54:14.938Z,22.31
2022-10-24T13:56:45.346Z,22.18
2022-10-24T13:59:30.679Z,22.37
2022-10-24T14:02:02.946Z,22.21
2022-10-24T14:04:35.092Z,22.16
2022-10-24T14:07:06.090Z,22.18
2022-10-24T14:09:41.158Z,22.15
2022-10-24T14:12:18.652Z,22.33
2022-10-24T14:14:49.441Z,22.39
2022-10-24T14:17:24.041Z,22.35
2022-10-24T14:19:57.266Z,22.23
2022-10-24T14:22:29.474Z,22.13
2022-10-24T14:24:57.869Z,22.18
2022-10-24T14:27:26.424Z,22.42
2022-10-24T14:29:59.048Z,22.54
2022-10-24T14:32:29.944Z,22.62
2022-10-24T14:37:35.888Z,25.79
2022-10-24T14:40:05.713Z,25.99
2022-10-24T14:42:34.368Z,25.82
2022-10-24T14:45:02.787Z,25.88
2022-10-24T14:47:32.960Z,26.40
2022-10-24T14:50:03.234Z,27.01
2022-10-24T14:52:37.053Z,25.42
2022-10-24T14:55:08.906Z,24.34
2022-10-24T14:57:39.262Z,23.29
2022-10-24T15:00:19.894Z,22.77
2022-10-24T15:02:49.649Z,22.14
2022-10-24T15:05:31.333Z,21.80
2022-10-24T15:08:22.538Z,21.44
2022-10-24T15:11:02.569Z,21.32
2022-10-24T15:13:33.628Z,21.18
2022-10-24T15:16:02.897Z,21.27
2022-10-24T15:18:33.272Z,21.26
2022-10-24T15:21:07.152Z,21.35
2022-10-24T15:23:37.908Z,21.25
2022-10-24T15:26:12.457Z,21.21
2022-10-24T15:28:47.691Z,21.09
2022-10-24T15:31:18.144Z,21.09
2022-10-24T15:33:47.033Z,20.80
2022-10-24T15:36:22.979Z,20.83
2022-10-24T15:38:55.304Z,20.51
2022-10-24T15:41:24.003Z,20.13
2022-10-24T15:43:51.823Z,20.02
2022-10-24T15:46:22.186Z,19.99
2022-10-24T15:48:50.891Z,20.00
2022-10-24T15:51:22.384Z,19.84
2022-10-24T15:53:51.861Z,19.71
2022-10-24T15:56:19.969Z,19.50
2022-10-24T16:01:26.468Z,19.17
2022-10-24T16:03:55.001Z,19.16
2022-10-24T16:06:24.861Z,19.14
2022-10-24T16:08:53.197Z,19.04
2022-10-24T16:11:21.323Z,18.95
2022-10-24T16:13:49.797Z,18.83
2022-10-24T16:16:17.593Z,18.69
2022-10-24T16:18:45.891Z,18.66
2022-10-24T16:21:18.476Z,18.53
2022-10-24T16:23:48.682Z,18.49
2022-10-24T16:26:17.646Z,18.43
2022-10-24T16:28:45.583Z,18.35
2022-10-24T16:31:19.608Z,18.32
2022-10-24T16:33:47.927Z,18.24
2022-10-24T16:36:18.466Z,18.19
2022-10-24T16:38:50.486Z,18.08
2022-10-24T16:41:19.726Z,17.99
2022-10-24T16:43:49.932Z,17.91
2022-10-24T16:46:19.551Z,17.90
2022-10-24T16:48:48.705Z,17.85
2022-10-24T16:51:19.741Z,17.79
2022-10-24T16:53:47.980Z,17.77
2022-10-24T16:56:17.736Z,17.71
2022-10-24T16:58:45.887Z,17.65
2022-10-24T17:01:16.132Z,17.62
